Time;durP1;ratioP1;P1;durP2;ratioP2;P2;SDS_P1;SDS_P2;PMS_P1;PMS_P2;Temp;Humidity;BMP_temperature;BMP_pressure;BME280_temperature;BME280_humidity;BME280_pressure;Samples;Min_cycle;Max_cycle;Signal;HPM_P1;HPM_P2
2023/02/16 00:01:15;;;;;;;35.53;15.18;;;;;;;0.74;63.38;102379.34;5041428;28;20047;-80
2023/02/16 00:03:41;;;;;;;41.00;16.73;;;;;;;0.77;63.77;102397.75;5051105;28;20051;-81
2023/02/16 00:06:13;;;;;;;34.88;15.05;;;;;;;0.62;64.00;102388.59;5044300;28;20501;-80
2023/02/16 00:08:39;;;;;;;46.90;18.80;;;;;;;0.60;65.09;102398.38;5038799;28;20045;-80
2023/02/16 00:13:51;;;;;;;48.78;23.77;;;;;;;0.56;67.01;102402.91;5044878;28;20564;-81
2023/02/16 00:16:21;;;;;;;45.95;22.33;;;;;;;0.37;68.36;102399.16;5043116;28;20473;-82
2023/02/16 00:18:49;;;;;;;45.08;20.65;;;;;;;0.04;70.72;102378.22;5055710;28;20417;-81
2023/02/16 00:21:15;;;;;;;;;;;;;;;0.20;70.26;102399.75;5038449;28;20030;-80
2023/02/16 00:23:41;;;;;;;43.13;19.40;;;;;;;0.01;70.80;102396.00;5042272;28;19939;-82
2023/02/16 00:26:15;;;;;;;48.25;20.92;;;;;;;-0.07;71.21;102398.84;5033326;28;20461;-81
2023/02/16 00:28:41;;;;;;;44.15;21.75;;;;;;;-0.35;71.86;102391.84;5014488;28;20090;-81
2023/02/16 00:31:14;;;;;;;44.53;20.80;;;;;;;-0.17;71.36;102392.16;5042345;28;20029;-80
2023/02/16 00:33:41;;;;;;;44.35;20.63;;;;;;;-0.31;71.40;102377.59;5025286;28;20036;-82
2023/02/16 00:36:07;;;;;;;48.47;20.05;;;;;;;-0.41;71.31;102381.44;5017112;28;20037;-83
2023/02/16 00:38:33;;;;;;;40.60;19.67;;;;;;;-0.40;71.54;102388.44;5044727;28;20034;-81
2023/02/16 00:40:58;;;;;;;38.90;18.93;;;;;;;-0.35;70.94;102396.22;5054782;28;20374;-81
2023/02/16 00:43:28;;;;;;;39.77;18.13;;;;;;;-0.48;71.25;102387.84;5024143;28;20061;-82
2023/02/16 00:45:55;;;;;;;40.75;18.55;;;;;;;-0.50;71.17;102389.66;5049523;28;20364;-81
2023/02/16 00:48:21;;;;;;;40.65;19.08;;;;;;;-0.56;71.32;102392.47;5047472;28;20032;-80
2023/02/16 00:50:47;;;;;;;40.78;18.05;;;;;;;-0.56;70.88;102355.50;5042613;28;20075;-80
2023/02/16 00:53:14;;;;;;;41.03;18.95;;;;;;;-0.41;70.71;102383.22;5041648;28;20038;-80
2023/02/16 00:55:40;;;;;;;43.78;19.33;;;;;;;-0.36;70.55;102379.53;5016691;28;20039;-81
2023/02/16 00:58:19;;;;;;;43.47;18.95;;;;;;;-0.62;71.20;102366.25;5029609;28;20042;-82
2023/02/16 01:00:51;;;;;;;45.88;18.88;;;;;;;-0.50;70.95;102377.31;5039561;28;20033;-81
2023/02/16 01:03:18;;;;;;;43.10;18.52;;;;;;;-0.51;70.63;102372.94;5030795;28;20100;-81
2023/02/16 01:05:44;;;;;;;40.65;19.13;;;;;;;-0.39;70.33;102366.41;5032327;28;20342;-80
2023/02/16 01:11:06;;;;;;;37.20;18.20;;;;;;;-0.71;71.02;102365.63;5041232;28;20143;-81
2023/02/16 01:13:36;;;;;;;41.80;19.20;;;;;;;-0.65;71.08;102370.72;5033418;28;20049;-81
2023/02/16 01:16:01;;;;;;;44.17;19.05;;;;;;;-0.64;71.22;102377.72;5035666;28;20032;-81
2023/02/16 01:18:28;;;;;;;44.53;21.30;;;;;;;-0.64;71.29;102380.38;5045222;28;20029;-81
2023/02/16 01:20:54;;;;;;;50.05;23.50;;;;;;;-0.58;70.83;102370.56;5043528;28;20454;-80
2023/02/16 01:23:20;;;;;;;56.25;26.38;;;;;;;-0.66;71.11;102366.38;5042948;28;20033;-81
2023/02/16 01:25:46;;;;;;;56.63;27.20;;;;;;;-0.65;71.49;102367.22;5047685;28;20034;-81
2023/02/16 01:28:19;;;;;;;56.67;27.60;;;;;;;-0.90;72.07;102338.03;5037704;28;20493;-81
2023/02/16 01:30:45;;;;;;;63.38;28.65;;;;;;;-1.02;72.96;102343.69;5033634;28;20040;-80
2023/02/16 01:33:11;;;;;;;62.13;27.50;;;;;;;-1.00;73.30;102361.22;5015549;28;20430;-80
2023/02/16 01:35:36;;;;;;;65.55;29.35;;;;;;;-1.06;73.15;102359.59;5049305;28;20327;-81
2023/02/16 01:38:02;;;;;;;62.43;28.00;;;;;;;-0.97;73.25;102361.13;5030781;28;20072;-81
2023/02/16 01:40:33;;;;;;;59.73;27.63;;;;;;;-0.97;73.28;102373.47;5007888;28;20027;-82
2023/02/16 01:43:17;;;;;;;57.70;26.48;;;;;;;-0.89;72.89;102366.16;5048726;28;20377;-81
2023/02/16 01:45:45;;;;;;;59.58;26.63;;;;;;;-0.92;72.80;102371.56;5038871;28;20052;-81
2023/02/16 01:48:26;;;;;;;56.33;27.20;;;;;;;-0.91;72.72;102370.66;5020070;28;20523;-81
2023/02/16 01:51:13;;;;;;;61.17;26.75;;;;;;;-0.87;72.89;102372.28;5040045;28;20041;-80
2023/02/16 01:54:07;;;;;;;58.75;27.33;;;;;;;-0.94;72.80;102371.59;5044603;28;20033;-81
2023/02/16 01:56:42;;;;;;;58.38;26.90;;;;;;;-1.01;72.77;102356.84;5029445;28;20437;-79
2023/02/16 01:59:18;;;;;;;57.90;27.15;;;;;;;-0.91;72.46;102370.66;5030930;28;20040;-81
2023/02/16 02:01:58;;;;;;;60.53;26.50;;;;;;;-0.92;72.71;102368.91;5026950;28;20471;-80
2023/02/16 02:07:26;;;;;;;57.15;26.13;;;;;;;-0.91;72.44;102366.22;5043807;28;20151;-81
2023/02/16 02:10:07;;;;;;;55.13;26.65;;;;;;;-0.93;72.34;102383.91;5030892;28;20124;-81
2023/02/16 02:13:04;;;;;;;55.00;25.42;;;;;;;-1.03;73.01;102384.19;5031870;28;20036;-81
2023/02/16 02:15:30;;;;;;;57.15;25.52;;;;;;;-1.14;73.29;102372.19;5046918;28;20029;-80
2023/02/16 02:17:57;;;;;;;53.63;24.42;;;;;;;-1.05;72.89;102373.69;5010644;28;20171;-82
2023/02/16 02:23:44;;;;;;;47.75;22.77;;;;;;;-1.11;73.02;102371.22;5036661;28;20076;-80
2023/02/16 02:26:37;;;;;;;52.85;25.38;;;;;;;-1.12;72.96;102366.88;5048569;28;20140;-81
2023/02/16 02:29:18;;;;;;;53.65;26.23;;;;;;;-1.24;73.64;102373.34;5044189;28;20020;-82
2023/02/16 02:31:46;;;;;;;64.32;27.85;;;;;;;-1.38;73.93;102351.75;5039709;28;20029;-81
2023/02/16 02:34:32;;;;;;;63.33;29.02;;;;;;;-1.35;73.77;102343.75;5044883;28;20370;-81
2023/02/16 02:37:34;;;;;;;62.17;28.52;;;;;;;-1.30;74.10;102368.25;5031267;28;20065;-83
2023/02/16 02:40:14;;;;;;;59.08;27.27;;;;;;;-1.55;74.24;102331.97;5011310;28;20069;-82
2023/02/16 02:43:24;;;;;;;67.55;29.02;;;;;;;-1.37;74.63;102367.53;5025259;28;20354;-81
2023/02/16 02:46:02;;;;;;;67.43;30.25;;;;;;;-1.45;74.99;102363.38;5028908;28;20106;-81
2023/02/16 02:48:31;;;;;;;64.85;30.30;;;;;;;-1.45;74.96;102363.38;5027170;28;20037;-81
2023/02/16 02:53:49;;;;;;;59.83;26.55;;;;;;;-1.41;74.48;102338.66;5039841;28;20060;-81
2023/02/16 03:01:55;;;;;;;60.80;29.02;;;;;;;-1.41;74.32;102344.78;5048666;28;20487;-80
2023/02/16 03:04:24;;;;;;;59.60;28.60;;;;;;;-1.42;74.76;102358.03;5025600;28;20036;-80
2023/02/16 03:06:51;;;;;;;61.20;28.73;;;;;;;-1.33;74.41;102347.22;5043412;28;20060;-81
2023/02/16 03:09:19;;;;;;;67.25;30.98;;;;;;;-1.38;74.27;102334.16;5028539;28;20055;-81
2023/02/16 03:14:58;;;;;;;74.03;32.15;;;;;;;-1.20;74.07;102353.88;5040691;28;20098;-81
2023/02/16 03:31:15;;;;;;;67.15;30.42;;;;;;;-1.57;74.73;102344.38;5061712;28;20036;-81
2023/02/16 03:33:41;;;;;;;72.70;31.60;;;;;;;-1.54;74.76;102352.19;5008895;28;20029;-81
2023/02/16 03:36:13;;;;;;;77.80;32.88;;;;;;;-1.30;74.21;102384.94;5021029;28;20033;-81
2023/02/16 03:38:38;;;;;;;83.95;32.90;;;;;;;-1.32;74.52;102380.59;5041859;28;20103;-80
2023/02/16 03:41:06;;;;;;;77.47;35.50;;;;;;;-1.57;74.55;102338.19;5033507;28;20033;-81
2023/02/16 03:43:33;;;;;;;82.50;36.10;;;;;;;-1.37;74.51;102375.47;5029590;28;20053;-80
2023/02/16 03:46:00;;;;;;;84.63;38.03;;;;;;;-1.34;74.55;102370.09;5028519;28;20435;-80
2023/02/16 03:48:25;;;;;;;82.80;37.47;;;;;;;-1.43;74.69;102369.47;5038050;28;20042;-80
2023/02/16 03:50:52;;;;;;;85.33;39.07;;;;;;;-1.68;75.48;102372.78;5061182;28;20048;-82
2023/02/16 03:53:18;;;;;;;89.35;38.10;;;;;;;-1.62;75.57;102377.88;5054671;28;20063;-81
2023/02/16 03:55:45;;;;;;;90.80;37.50;;;;;;;-1.58;75.40;102376.91;5051526;28;20029;-80
2023/02/16 03:58:16;;;;;;;83.68;35.88;;;;;;;-1.57;75.62;102375.13;5031726;28;20453;-81
2023/02/16 04:00:42;;;;;;;86.97;36.97;;;;;;;-1.60;75.46;102376.06;5051026;28;20051;-80
2023/02/16 04:03:10;;;;;;;81.47;37.47;;;;;;;-1.65;75.11;102367.41;5027761;28;20420;-80
2023/02/16 04:05:37;;;;;;;85.38;38.20;;;;;;;-1.53;74.80;102388.19;5037486;28;20337;-80
2023/02/16 04:08:03;;;;;;;90.10;35.20;;;;;;;-1.61;74.94;102374.34;5057636;28;20095;-82
2023/02/16 04:10:28;;;;;;;81.30;35.75;;;;;;;-1.66;75.13;102376.25;5029770;28;20454;-80
2023/02/16 04:12:54;;;;;;;80.43;34.80;;;;;;;-1.62;75.32;102393.72;5058771;28;20044;-81
2023/02/16 04:15:21;;;;;;;82.40;34.50;;;;;;;-1.70;75.49;102390.41;5026744;28;20044;-82
2023/02/16 04:17:47;;;;;;;73.75;34.35;;;;;;;-1.63;75.13;102386.72;5033231;28;20033;-80
2023/02/16 04:20:17;;;;;;;75.80;35.42;;;;;;;-1.66;75.11;102378.91;5048709;28;20051;-81
2023/02/16 04:22:44;;;;;;;88.07;36.55;;;;;;;-1.60;75.55;102386.63;5056241;28;20047;-81
2023/02/16 04:25:09;;;;;;;88.10;38.47;;;;;;;-1.56;74.91;102372.47;5045283;28;20060;-81
2023/02/16 04:27:35;;;;;;;86.70;38.28;;;;;;;-1.57;75.16;102376.00;5058372;28;20037;-81
2023/02/16 04:30:03;;;;;;;87.95;38.97;;;;;;;-1.67;75.46;102374.50;5049468;28;20397;-80
2023/02/16 04:32:29;;;;;;;87.90;39.17;;;;;;;-1.62;75.64;102382.28;5032323;28;20044;-80
2023/02/16 04:34:55;;;;;;;95.20;40.27;;;;;;;-1.66;75.81;102393.81;5034290;28;20033;-81
2023/02/16 04:37:21;;;;;;;89.30;39.10;;;;;;;-1.58;75.32;102376.91;5059333;28;20036;-81
2023/02/16 04:39:46;;;;;;;87.27;39.70;;;;;;;-1.57;75.18;102386.56;5043714;28;20443;-80
2023/02/16 04:42:12;;;;;;;86.70;37.23;;;;;;;-1.70;75.68;102387.78;5049510;28;20036;-80
2023/02/16 04:44:37;;;;;;;94.50;36.43;;;;;;;-1.60;75.84;102399.81;5042757;28;20490;-80
2023/02/16 04:47:03;;;;;;;86.90;38.45;;;;;;;-1.56;75.12;102396.19;5023173;28;20531;-80
2023/02/16 04:49:28;;;;;;;85.05;36.25;;;;;;;-1.56;75.44;102404.09;5054297;28;20044;-81
2023/02/16 04:51:54;;;;;;;86.80;36.73;;;;;;;-1.53;75.43;102404.03;5064968;28;20050;-80
2023/02/16 04:54:21;;;;;;;79.70;35.53;;;;;;;-1.61;75.12;102384.91;5054997;28;20063;-80
2023/02/16 04:56:47;;;;;;;86.75;33.70;;;;;;;-1.61;75.11;102387.53;5040796;28;20045;-79
2023/02/16 04:59:14;;;;;;;75.45;34.33;;;;;;;-1.57;75.07;102396.22;5052981;28;20025;-79
2023/02/16 05:01:40;;;;;;;76.70;32.67;;;;;;;-1.59;75.03;102404.19;5054887;28;20037;-80
2023/02/16 05:04:08;;;;;;;74.15;32.47;;;;;;;-1.55;74.95;102400.56;5043821;28;20072;-82
2023/02/16 05:06:34;;;;;;;74.50;31.75;;;;;;;-1.52;74.87;102412.81;5021542;28;20283;-82
2023/02/16 05:08:59;;;;;;;74.43;31.73;;;;;;;-1.45;74.60;102410.88;5036916;28;20045;-80
2023/02/16 05:17:00;;;;;;;70.72;31.48;;;;;;;-1.52;74.97;102405.78;5022166;28;20044;-80
2023/02/16 05:19:26;;;;;;;77.07;31.97;;;;;;;-1.46;75.38;102415.28;5040165;28;20036;-84
2023/02/16 05:21:51;;;;;;;72.63;32.07;;;;;;;-1.45;74.99;102400.31;5053633;28;20287;-82
2023/02/16 05:24:17;;;;;;;75.63;32.63;;;;;;;-1.32;75.11;102417.56;5041803;28;20029;-81
2023/02/16 05:26:42;;;;;;;69.23;31.63;;;;;;;-1.21;74.57;102425.19;5046658;28;20040;-84
2023/02/16 05:29:09;;;;;;;65.40;31.67;;;;;;;-1.24;74.83;102436.69;5039926;28;20131;-81
2023/02/16 05:31:38;;;;;;;78.35;33.05;;;;;;;-1.29;75.33;102438.56;5026953;28;20045;-86
2023/02/16 05:34:03;;;;;;;76.05;36.08;;;;;;;-1.20;75.44;102422.50;5046111;28;20045;-83
2023/02/16 05:36:29;;;;;;;84.97;39.37;;;;;;;-1.24;75.02;102410.31;5053004;28;20052;-83
2023/02/16 05:38:56;;;;;;;77.67;36.27;;;;;;;-1.03;74.70;102423.78;5055685;28;20044;-87
2023/02/16 05:41:25;;;;;;;73.97;34.25;;;;;;;-0.90;74.22;102427.81;5043323;28;20108;-89
2023/02/16 05:43:55;;;;;;;65.47;31.70;;;;;;;-0.77;73.45;102433.59;5064539;28;20044;-87
2023/02/16 05:46:21;;;;;;;61.05;29.33;;;;;;;-0.88;73.24;102424.22;5054170;28;20048;-81
2023/02/16 05:48:51;;;;;;;70.18;29.95;;;;;;;-0.81;72.90;102414.34;5046459;28;20030;-85
2023/02/16 05:51:16;;;;;;;62.45;29.05;;;;;;;-0.61;72.18;102426.09;5031121;28;20542;-85
2023/02/16 05:53:43;;;;;;;63.03;29.42;;;;;;;-0.69;72.37;102436.91;5058416;28;20037;-90
2023/02/16 05:56:11;;;;;;;62.88;30.40;;;;;;;-0.62;74.48;102434.94;5054357;28;20151;-82
2023/02/16 05:58:36;;;;;;;69.53;29.52;;;;;;;-0.62;73.02;102430.53;5053286;28;20055;-81
2023/02/16 06:01:03;;;;;;;62.47;27.80;;;;;;;-0.37;72.52;102429.81;5020324;28;20048;-82
2023/02/16 06:03:30;;;;;;;59.28;30.48;;;;;;;1.05;69.60;102438.22;5046837;28;20051;-80
2023/02/16 06:05:59;;;;;;;56.58;28.75;;;;;;;3.52;61.93;102427.03;5052936;28;20459;-82
2023/02/16 06:08:31;;;;;;;62.22;29.67;;;;;;;5.49;56.55;102409.00;5054463;28;20166;-82
2023/02/16 06:10:57;;;;;;;74.82;29.42;;;;;;;7.40;51.13;102418.13;5056289;28;20120;-81
2023/02/16 06:13:26;;;;;;;58.60;29.38;;;;;;;9.22;45.61;102422.06;5060366;28;20111;-83
2023/02/16 06:15:53;;;;;;;56.75;29.63;;;;;;;10.57;41.57;102409.41;5066815;28;20071;-81
2023/02/16 06:18:19;;;;;;;49.95;30.60;;;;;;;11.57;38.53;102401.53;5064378;28;20045;-83
2023/02/16 06:20:46;;;;;;;50.30;29.90;;;;;;;12.17;36.04;102392.03;5037298;28;20037;-83
2023/02/16 06:23:13;;;;;;;50.92;31.25;;;;;;;11.96;35.84;102410.91;5014649;28;20485;-82
2023/02/16 06:25:47;;;;;;;54.95;30.63;;;;;;;12.64;34.74;102402.47;5032970;28;20041;-83
2023/02/16 06:28:14;;;;;;;47.17;30.10;;;;;;;12.12;34.73;102412.31;5029870;28;20120;-82
2023/02/16 06:30:41;;;;;;;58.55;31.77;;;;;;;12.45;34.39;102406.78;5033945;28;20041;-82
2023/02/16 06:33:07;;;;;;;50.78;31.20;;;;;;;12.49;35.23;102411.91;5049088;28;20041;-82
2023/02/16 06:35:34;;;;;;;48.97;30.80;;;;;;;13.55;32.47;102405.34;5042038;28;20045;-84
2023/02/16 06:38:05;;;;;;;52.88;31.05;;;;;;;14.32;31.53;102401.88;5035249;28;20082;-84
2023/02/16 06:40:32;;;;;;;53.15;31.50;;;;;;;14.56;30.92;102409.56;5050084;28;20544;-86
2023/02/16 06:42:58;;;;;;;57.58;30.95;;;;;;;15.01;29.75;102402.63;5044143;28;20029;-83
2023/02/16 06:45:24;;;;;;;49.17;30.58;;;;;;;16.32;28.47;102390.56;5050777;28;20726;-80
2023/02/16 06:47:49;;;;;;;61.63;31.58;;;;;;;16.92;27.22;102404.28;5053441;28;20033;-81
2023/02/16 06:50:16;;;;;;;50.13;32.00;;;;;;;16.91;27.00;102383.59;5049340;28;20405;-83
2023/02/16 06:52:42;;;;;;;50.28;31.45;;;;;;;17.29;26.51;102403.13;5043392;28;20036;-79
2023/02/16 06:55:08;;;;;;;53.55;32.80;;;;;;;17.54;25.54;102386.94;5051394;28;20048;-84
2023/02/16 06:57:36;;;;;;;64.28;36.42;;;;;;;17.55;25.69;102378.59;5044582;28;20036;-81
2023/02/16 07:00:03;;;;;;;65.45;37.17;;;;;;;18.23;25.40;102393.88;5011828;28;20611;-80
2023/02/16 07:02:30;;;;;;;58.95;36.53;;;;;;;18.92;24.27;102404.41;5050995;28;20632;-81
2023/02/16 07:04:56;;;;;;;55.17;33.75;;;;;;;19.29;23.64;102398.34;5041992;28;20033;-82
2023/02/16 07:07:21;;;;;;;;;;;;;;;20.38;22.85;102401.94;5032792;28;20117;-83
2023/02/16 07:09:46;;;;;;;;;;;;;;;20.55;22.64;102397.19;5044299;28;20007;-83
2023/02/16 07:12:12;;;;;;;51.87;30.87;;;;;;;20.50;23.06;102393.31;5049453;28;20507;-89
2023/02/16 07:14:37;;;;;;;;;;;;;;;21.03;21.91;102405.94;5048217;28;20303;-79
2023/02/16 07:17:03;;;;;;;52.35;28.75;;;;;;;19.75;23.56;102400.34;5048687;28;20051;-84
2023/02/16 07:19:32;;;;;;;47.97;29.85;;;;;;;19.49;23.60;102370.63;5047371;28;20029;-84
2023/02/16 07:21:59;;;;;;;51.40;30.45;;;;;;;18.17;24.80;102390.97;5046668;28;20029;-85
2023/02/16 07:24:25;;;;;;;45.58;31.67;;;;;;;17.83;25.37;102381.91;5015829;28;20131;-83
2023/02/16 07:26:50;;;;;;;;;;;;;;;18.46;25.25;102391.31;5033757;28;20033;-84
2023/02/16 07:29:18;;;;;;;53.35;30.35;;;;;;;19.66;23.74;102368.66;5051976;28;19921;-85
2023/02/16 07:31:45;;;;;;;65.47;32.58;;;;;;;19.96;23.37;102365.06;5066448;28;20044;-84
2023/02/16 07:34:10;;;;;;;64.90;31.60;;;;;;;20.27;23.09;102377.78;5024289;28;20041;-85
2023/02/16 07:36:37;;;;;;;;;;;;;;;21.42;21.96;102376.63;5064718;28;20056;-85
2023/02/16 07:39:03;;;;;;;51.45;30.40;;;;;;;21.57;21.14;102371.13;5060501;28;19980;-86
2023/02/16 07:41:28;;;;;;;66.15;34.15;;;;;;;21.74;21.20;102347.09;5053295;28;20045;-81
2023/02/16 07:43:54;;;;;;;64.40;32.72;;;;;;;22.61;20.66;102348.72;5029092;28;20055;-84
2023/02/16 07:46:19;;;;;;;49.33;30.55;;;;;;;22.72;20.09;102350.94;5048345;28;20116;-83
2023/02/16 07:48:53;;;;;;;55.78;30.30;;;;;;;22.81;19.87;102336.00;5063036;28;20032;-85
2023/02/16 07:51:26;;;;;;;47.72;31.00;;;;;;;22.13;20.86;102352.97;5059980;28;20036;-85
2023/02/16 07:53:53;;;;;;;49.22;29.23;;;;;;;21.61;21.29;102362.34;5039739;28;20045;-82
2023/02/16 07:56:30;;;;;;;54.20;30.55;;;;;;;21.24;21.54;102358.69;5050916;28;20071;-83
2023/02/16 07:59:25;;;;;;;47.25;29.77;;;;;;;21.25;21.21;102352.19;5040705;28;20059;-86
2023/02/16 08:01:50;;;;;;;;;;;;;;;21.63;21.23;102360.25;5048526;28;20115;-84
2023/02/16 08:04:17;;;;;;;43.70;28.95;;;;;;;21.51;21.47;102359.03;5055527;28;20053;-85
2023/02/16 08:06:45;;;;;;;62.03;30.58;;;;;;;20.98;21.73;102348.25;5047520;28;20458;-82
2023/02/16 08:09:11;;;;;;;47.65;28.40;;;;;;;20.44;22.27;102330.19;5038949;28;20537;-82
2023/02/16 08:11:38;;;;;;;46.05;28.52;;;;;;;21.04;21.83;102333.81;5028737;28;20035;-82
2023/02/16 08:14:05;;;;;;;42.35;26.65;;;;;;;21.60;20.64;102341.47;5050135;28;20490;-83
2023/02/16 08:16:30;;;;;;;36.78;25.50;;;;;;;22.35;19.99;102322.81;5048330;28;20074;-84
2023/02/16 08:18:59;;;;;;;40.05;24.13;;;;;;;22.70;20.44;102342.06;5031456;28;20049;-83
2023/02/16 08:21:27;;;;;;;44.15;24.20;;;;;;;23.48;19.77;102336.34;5042295;28;20033;-84
2023/02/16 08:23:54;;;;;;;37.22;23.27;;;;;;;24.38;19.34;102346.00;5048111;28;20052;-85
2023/02/16 08:26:22;;;;;;;36.55;22.08;;;;;;;24.29;18.81;102335.44;5046560;28;20049;-84
2023/02/16 08:28:49;;;;;;;36.45;22.33;;;;;;;23.97;18.90;102327.78;5042903;28;20120;-83
2023/02/16 08:31:17;;;;;;;38.58;22.80;;;;;;;25.02;18.45;102336.16;5033090;28;20477;-84
2023/02/16 08:33:44;;;;;;;36.67;21.92;;;;;;;25.08;17.63;102339.97;5031331;28;20043;-82
2023/02/16 08:36:19;;;;;;;40.22;21.90;;;;;;;25.75;17.23;102351.50;5047633;28;20037;-84
2023/02/16 08:38:49;;;;;;;40.45;22.27;;;;;;;25.71;17.07;102347.53;5034176;28;20041;-81
2023/02/16 08:41:15;;;;;;;34.85;21.77;;;;;;;26.04;17.37;102332.72;5032911;28;20040;-83
2023/02/16 08:43:43;;;;;;;35.53;21.70;;;;;;;23.92;18.97;102343.22;5029121;28;20330;-80
2023/02/16 08:46:13;;;;;;;43.65;21.63;;;;;;;23.64;18.71;102337.88;5045070;28;20045;-83
2023/02/16 08:48:39;;;;;;;35.50;22.67;;;;;;;24.34;19.51;102333.72;5045275;28;20056;-82
2023/02/16 08:51:05;;;;;;;34.42;21.02;;;;;;;21.91;20.86;102338.44;5042196;28;20370;-85
2023/02/16 08:53:34;;;;;;;36.55;22.25;;;;;;;22.31;20.43;102336.09;5049660;28;20067;-85
2023/02/16 08:56:05;;;;;;;38.72;22.52;;;;;;;23.34;19.92;102330.81;5025917;28;20056;-82
2023/02/16 08:58:31;;;;;;;36.53;22.33;;;;;;;22.65;20.45;102333.59;5035285;28;20057;-76
2023/02/16 09:00:57;;;;;;;39.88;23.50;;;;;;;23.23;19.52;102331.41;5057592;28;20037;-78
2023/02/16 09:03:23;;;;;;;40.15;24.08;;;;;;;23.42;19.37;102334.44;5012183;28;20481;-78
2023/02/16 09:05:50;;;;;;;34.53;22.77;;;;;;;24.19;18.60;102333.97;5039853;28;20061;-80
2023/02/16 09:08:17;;;;;;;33.58;21.30;;;;;;;24.69;18.29;102335.41;5047717;28;20033;-82
2023/02/16 09:10:44;;;;;;;34.22;21.55;;;;;;;25.76;17.82;102336.69;5054785;28;20029;-88
2023/02/16 09:13:13;;;;;;;34.15;22.45;;;;;;;26.26;17.20;102331.22;5034581;28;20438;-83
2023/02/16 09:15:51;;;;;;;29.85;20.80;;;;;;;27.25;17.04;102322.16;5036353;28;20101;-86
2023/02/16 09:18:18;;;;;;;27.00;20.25;;;;;;;28.66;15.22;102314.22;5053290;28;20037;-86
2023/02/16 09:20:49;;;;;;;28.02;20.45;;;;;;;29.27;14.31;102317.47;5060822;28;20063;-87
2023/02/16 09:23:15;;;;;;;28.02;19.10;;;;;;;29.79;13.71;102327.59;5033898;28;20106;-79
2023/02/16 09:25:40;;;;;;;26.35;18.13;;;;;;;30.59;13.44;102309.75;5034263;28;20032;-82
2023/02/16 09:28:08;;;;;;;26.10;17.05;;;;;;;31.37;12.75;102319.91;5035580;28;20040;-83
2023/02/16 09:30:39;;;;;;;27.00;16.58;;;;;;;31.28;12.65;102312.06;5052605;28;20118;-82
2023/02/16 09:33:05;;;;;;;21.30;15.13;;;;;;;30.74;12.36;102314.66;5050706;28;20045;-86
2023/02/16 09:35:33;;;;;;;23.23;16.70;;;;;;;30.98;11.95;102315.31;5066808;28;20530;-86
2023/02/16 09:38:01;;;;;;;26.00;16.05;;;;;;;31.81;11.47;102308.72;5072199;28;20012;-86
2023/02/16 09:40:27;;;;;;;26.83;15.63;;;;;;;32.41;11.03;102301.13;5050776;28;20048;-90
2023/02/16 09:45:24;;;;;;;18.33;13.63;;;;;;;32.30;11.14;102280.75;5093033;28;20052;-87
2023/02/16 09:48:00;;;;;;;21.52;13.48;;;;;;;32.00;10.79;102298.06;5055257;28;20067;-87
2023/02/16 09:50:27;;;;;;;17.70;12.70;;;;;;;31.53;10.61;102282.88;5049694;28;20145;-85
2023/02/16 09:52:59;;;;;;;18.45;13.43;;;;;;;31.18;10.72;102289.69;5055580;28;20037;-86
2023/02/16 09:55:33;;;;;;;23.15;13.25;;;;;;;32.54;10.29;102279.22;5039460;28;20851;-86
2023/02/16 09:58:18;;;;;;;20.15;12.60;;;;;;;31.49;10.23;102271.47;5053714;28;20041;-84
2023/02/16 10:01:02;;;;;;;18.42;11.77;;;;;;;32.68;9.65;102274.00;5052372;28;20032;-85
2023/02/16 10:03:51;;;;;;;20.05;11.68;;;;;;;31.47;10.10;102267.28;5073704;28;20036;-87
2023/02/16 10:06:29;;;;;;;21.95;12.20;;;;;;;30.75;10.76;102263.63;5051666;28;20152;-82
2023/02/16 10:09:10;;;;;;;21.17;12.32;;;;;;;31.51;10.38;102257.28;5052541;28;20040;-84
2023/02/16 10:11:53;;;;;;;24.75;12.18;;;;;;;31.49;9.91;102259.47;5044682;28;20009;-83
2023/02/16 10:14:43;;;;;;;22.25;11.77;;;;;;;31.69;10.21;102264.41;5051343;28;20032;-84
2023/02/16 10:17:39;;;;;;;16.42;12.13;;;;;;;32.57;9.53;102256.44;5049608;28;20051;-77
2023/02/16 10:20:18;;;;;;;16.63;12.52;;;;;;;31.23;10.02;102248.09;5045074;28;20027;-79
2023/02/16 10:22:57;;;;;;;20.58;12.15;;;;;;;31.34;10.30;102235.97;5039899;28;20199;-78
2023/02/16 10:25:41;;;;;;;18.13;12.77;;;;;;;31.10;10.02;102256.84;5052169;28;20128;-87
2023/02/16 10:28:39;;;;;;;23.30;13.20;;;;;;;31.92;10.28;102250.13;5069510;28;20041;-79
2023/02/16 10:31:37;;;;;;;25.27;13.15;;;;;;;33.15;9.66;102255.53;5047485;28;20295;-78
2023/02/16 10:34:30;;;;;;;18.25;13.95;;;;;;;32.68;9.65;102246.16;5067534;28;20496;-77
2023/02/16 10:37:14;;;;;;;18.88;13.70;;;;;;;32.37;9.80;102247.94;5052115;28;20064;-82
2023/02/16 10:39:45;;;;;;;18.75;13.82;;;;;;;32.74;9.58;102245.09;5071443;28;20048;-77
2023/02/16 10:42:16;;;;;;;22.15;13.88;;;;;;;32.72;9.70;102238.94;5070021;28;20028;-78
2023/02/16 10:44:47;;;;;;;22.17;13.77;;;;;;;32.08;9.42;102230.81;5069388;28;20049;-76
2023/02/16 10:47:36;;;;;;;20.45;15.23;;;;;;;32.18;9.62;102223.34;5033977;28;20557;-75
2023/02/16 10:50:06;;;;;;;24.02;16.40;;;;;;;31.13;10.21;102234.94;5049813;28;20052;-78
2023/02/16 10:52:36;;;;;;;21.55;15.05;;;;;;;30.87;10.29;102236.59;5050210;28;20033;-75
2023/02/16 10:55:01;;;;;;;20.13;15.38;;;;;;;31.30;10.38;102223.72;5032331;28;20492;-77
2023/02/16 10:57:32;;;;;;;26.92;15.93;;;;;;;29.07;11.59;102222.88;5034788;28;20078;-76
2023/02/16 11:00:02;;;;;;;24.25;15.35;;;;;;;28.45;12.12;102223.50;5040631;28;20044;-76
2023/02/16 11:02:42;;;;;;;24.50;15.50;;;;;;;28.54;11.83;102230.38;5034642;28;20040;-77
2023/02/16 11:05:31;;;;;;;18.23;13.27;;;;;;;27.93;12.16;102219.59;5027610;28;20131;-77
2023/02/16 11:08:00;;;;;;;22.00;14.65;;;;;;;27.95;12.29;102202.75;5067816;28;20037;-76
2023/02/16 11:10:50;;;;;;;19.15;13.35;;;;;;;25.65;14.50;102229.97;5066439;28;20418;-76
2023/02/16 11:13:32;;;;;;;18.35;14.82;;;;;;;26.16;18.15;102222.56;5050753;28;20120;-76
2023/02/16 11:16:08;;;;;;;17.15;14.48;;;;;;;25.53;18.62;102218.00;5051401;28;20063;-75
2023/02/16 11:18:41;;;;;;;19.13;15.27;;;;;;;25.16;18.93;102193.03;5050765;28;20043;-75
2023/02/16 11:21:08;;;;;;;21.08;14.60;;;;;;;23.79;19.94;102209.50;5051082;28;20472;-75
2023/02/16 11:23:41;;;;;;;20.25;14.10;;;;;;;24.04;19.61;102209.69;5050925;28;20523;-75
2023/02/16 11:26:23;;;;;;;20.13;14.98;;;;;;;24.05;20.41;102208.63;5050375;28;20101;-75
2023/02/16 11:28:49;;;;;;;22.00;14.95;;;;;;;23.57;21.06;102209.66;5050473;28;20044;-76
2023/02/16 11:31:30;;;;;;;21.67;14.63;;;;;;;24.14;20.25;102210.09;5034266;28;20042;-76
2023/02/16 11:34:07;;;;;;;22.73;14.82;;;;;;;24.38;19.59;102215.97;5067887;28;20032;-76
2023/02/16 11:36:44;;;;;;;18.63;14.18;;;;;;;24.27;19.66;102211.13;5033723;28;20029;-76
2023/02/16 11:39:12;;;;;;;20.80;13.80;;;;;;;23.41;20.13;102207.31;5050170;28;20164;-76
2023/02/16 11:42:12;;;;;;;18.58;13.75;;;;;;;22.83;19.94;102198.69;5067978;28;20512;-77
2023/02/16 11:44:45;;;;;;;19.92;13.38;;;;;;;24.30;18.69;102199.69;5051140;28;20139;-77
2023/02/16 11:47:23;;;;;;;18.67;13.10;;;;;;;22.91;19.52;102213.09;5035387;28;20080;-76
2023/02/16 11:49:50;;;;;;;17.67;12.73;;;;;;;22.62;19.88;102213.41;5068147;28;20037;-76
2023/02/16 11:52:22;;;;;;;17.90;12.65;;;;;;;20.55;21.63;102213.28;5034203;28;20107;-75
2023/02/16 11:55:25;;;;;;;20.30;13.20;;;;;;;19.76;22.47;102205.56;5067738;28;20115;-75
2023/02/16 12:11:08;;;;;;;23.03;16.30;;;;;;;14.47;39.29;102205.63;5100568;27;20803;-78
2023/02/16 12:14:00;;;;;;;23.70;15.27;;;;;;;14.47;39.77;102194.78;5057196;28;20067;-77
2023/02/16 12:16:56;;;;;;;25.70;15.13;;;;;;;13.36;42.53;102201.69;5088771;28;20131;-78
2023/02/16 12:20:11;;;;;;;25.15;15.02;;;;;;;13.09;43.70;102205.06;5094906;28;20508;-77
2023/02/16 12:22:39;;;;;;;25.02;15.07;;;;;;;12.57;45.97;102204.34;5086759;28;20044;-78
2023/02/16 12:25:23;;;;;;;;;;;;;;;11.60;47.43;102205.47;5086592;28;20040;-78
2023/02/16 12:27:56;;;;;;;25.38;14.60;;;;;;;11.61;48.08;102196.41;5084908;28;19973;-78